sensor_id;sensor_type;location;lat;lon;timestamp;temperature;humidity
2012;DHT22;1009;51.436;6.972;2023-01-06T00:02:13;11.00;99.90
2012;DHT22;1009;51.436;6.972;2023-01-06T00:04:40;11.00;99.90
2012;DHT22;1009;51.436;6.972;2023-01-06T00:07:07;11.00;99.90
2012;DHT22;1009;51.436;6.972;2023-01-06T00:09:34;11.00;99.90
2012;DHT22;1009;51.436;6.972;2023-01-06T00:12:00;11.00;99.90
2012;DHT22;1009;51.436;6.972;2023-01-06T00:14:29;10.90;99.90
2012;DHT22;1009;51.436;6.972;2023-01-06T00:16:56;10.90;99.90
2012;DHT22;1009;51.436;6.972;2023-01-06T00:19:23;10.90;99.90
2012;DHT22;1009;51.436;6.972;2023-01-06T00:21:53;10.90;99.90
2012;DHT22;1009;51.436;6.972;2023-01-06T00:24:19;10.80;99.90
2012;DHT22;1009;51.436;6.972;2023-01-06T00:26:46;10.90;99.90
2012;DHT22;1009;51.436;6.972;2023-01-06T00:29:13;10.80;99.90
2012;DHT22;1009;51.436;6.972;2023-01-06T00:31:41;10.80;99.90
2012;DHT22;1009;51.436;6.972;2023-01-06T00:34:11;10.80;99.90
2012;DHT22;1009;51.436;6.972;2023-01-06T00:36:38;10.90;99.90
2012;DHT22;1009;51.436;6.972;2023-01-06T00:39:05;10.80;99.90
2012;DHT22;1009;51.436;6.972;2023-01-06T00:41:31;10.90;99.90
2012;DHT22;1009;51.436;6.972;2023-01-06T00:44:16;10.80;99.90
2012;DHT22;1009;51.436;6.972;2023-01-06T00:46:44;10.80;99.90
2012;DHT22;1009;51.436;6.972;2023-01-06T00:49:10;10.80;99.90
2012;DHT22;1009;51.436;6.972;2023-01-06T00:51:38;10.80;99.90
2012;DHT22;1009;51.436;6.972;2023-01-06T00:54:06;10.80;99.90
2012;DHT22;1009;51.436;6.972;2023-01-06T00:56:35;10.80;99.90
2012;DHT22;1009;51.436;6.972;2023-01-06T00:59:03;10.80;99.90
2012;DHT22;1009;51.436;6.972;2023-01-06T01:01:30;10.70;99.90
2012;DHT22;1009;51.436;6.972;2023-01-06T01:03:59;10.70;99.90
2012;DHT22;1009;51.436;6.972;2023-01-06T01:06:26;10.80;99.90
2012;DHT22;1009;51.436;6.972;2023-01-06T01:08:53;10.80;99.90
2012;DHT22;1009;51.436;6.972;2023-01-06T01:11:21;10.80;99.90
2012;DHT22;1009;51.436;6.972;2023-01-06T01:14:05;10.80;99.90
2012;DHT22;1009;51.436;6.972;2023-01-06T01:16:32;10.80;99.90
2012;DHT22;1009;51.436;6.972;2023-01-06T01:19:03;10.80;99.90
2012;DHT22;1009;51.436;6.972;2023-01-06T01:21:30;10.80;99.90
2012;DHT22;1009;51.436;6.972;2023-01-06T01:23:57;10.80;99.90
2012;DHT22;1009;51.436;6.972;2023-01-06T01:26:36;10.80;99.90
2012;DHT22;1009;51.436;6.972;2023-01-06T01:29:03;10.80;99.90
2012;DHT22;1009;51.436;6.972;2023-01-06T01:31:30;10.80;99.90
2012;DHT22;1009;51.436;6.972;2023-01-06T01:33:56;10.80;99.90
2012;DHT22;1009;51.436;6.972;2023-01-06T01:36:24;10.80;99.90
2012;DHT22;1009;51.436;6.972;2023-01-06T01:38:51;10.80;99.90
2012;DHT22;1009;51.436;6.972;2023-01-06T01:41:21;10.90;99.90
2012;DHT22;1009;51.436;6.972;2023-01-06T01:43:49;10.90;99.90
2012;DHT22;1009;51.436;6.972;2023-01-06T01:46:18;10.80;99.90
2012;DHT22;1009;51.436;6.972;2023-01-06T01:48:48;10.90;99.90
2012;DHT22;1009;51.436;6.972;2023-01-06T01:51:18;10.80;99.90
2012;DHT22;1009;51.436;6.972;2023-01-06T01:53:50;10.90;99.90
2012;DHT22;1009;51.436;6.972;2023-01-06T01:56:20;10.90;99.90
2012;DHT22;1009;51.436;6.972;2023-01-06T01:58:52;10.80;99.90
2012;DHT22;1009;51.436;6.972;2023-01-06T02:01:19;10.90;99.90
2012;DHT22;1009;51.436;6.972;2023-01-06T02:03:46;10.80;99.90
2012;DHT22;1009;51.436;6.972;2023-01-06T02:06:17;10.70;99.90
2012;DHT22;1009;51.436;6.972;2023-01-06T02:08:50;10.80;99.90
2012;DHT22;1009;51.436;6.972;2023-01-06T02:11:19;10.80;99.90
2012;DHT22;1009;51.436;6.972;2023-01-06T02:13:49;10.70;99.90
2012;DHT22;1009;51.436;6.972;2023-01-06T02:16:21;10.80;99.90
2012;DHT22;1009;51.436;6.972;2023-01-06T02:18:56;10.70;99.90
2012;DHT22;1009;51.436;6.972;2023-01-06T02:21:35;10.80;99.90
2012;DHT22;1009;51.436;6.972;2023-01-06T02:27:32;10.70;99.90
2012;DHT22;1009;51.436;6.972;2023-01-06T02:30:38;10.80;99.90
2012;DHT22;1009;51.436;6.972;2023-01-06T02:33:17;10.70;99.90
2012;DHT22;1009;51.436;6.972;2023-01-06T02:35:58;10.70;99.90
2012;DHT22;1009;51.436;6.972;2023-01-06T02:38:39;10.70;99.90
2012;DHT22;1009;51.436;6.972;2023-01-06T02:41:15;10.70;99.90
2012;DHT22;1009;51.436;6.972;2023-01-06T02:43:54;10.80;99.90
2012;DHT22;1009;51.436;6.972;2023-01-06T02:46:37;10.70;99.90
2012;DHT22;1009;51.436;6.972;2023-01-06T02:49:14;10.70;99.90
2012;DHT22;1009;51.436;6.972;2023-01-06T02:51:47;10.70;99.90
2012;DHT22;1009;51.436;6.972;2023-01-06T02:54:21;10.70;99.90
2012;DHT22;1009;51.436;6.972;2023-01-06T02:56:54;10.70;99.90
2012;DHT22;1009;51.436;6.972;2023-01-06T02:59:24;10.70;99.90
2012;DHT22;1009;51.436;6.972;2023-01-06T03:01:57;10.70;99.90
2012;DHT22;1009;51.436;6.972;2023-01-06T03:04:30;10.80;99.90
2012;DHT22;1009;51.436;6.972;2023-01-06T03:06:59;10.80;99.90
2012;DHT22;1009;51.436;6.972;2023-01-06T03:09:28;10.80;99.90
2012;DHT22;1009;51.436;6.972;2023-01-06T03:12:00;10.70;99.90
2012;DHT22;1009;51.436;6.972;2023-01-06T03:14:31;10.70;99.90
2012;DHT22;1009;51.436;6.972;2023-01-06T03:17:00;10.70;99.90
2012;DHT22;1009;51.436;6.972;2023-01-06T03:19:28;10.70;99.90
2012;DHT22;1009;51.436;6.972;2023-01-06T03:21:55;10.70;99.90
2012;DHT22;1009;51.436;6.972;2023-01-06T03:24:23;10.70;99.90
2012;DHT22;1009;51.436;6.972;2023-01-06T03:26:50;10.70;99.90
2012;DHT22;1009;51.436;6.972;2023-01-06T03:29:18;10.70;99.90
2012;DHT22;1009;51.436;6.972;2023-01-06T03:31:54;10.70;99.90
2012;DHT22;1009;51.436;6.972;2023-01-06T03:34:34;10.70;99.90
2012;DHT22;1009;51.436;6.972;2023-01-06T03:37:10;10.70;99.90
2012;DHT22;1009;51.436;6.972;2023-01-06T03:39:48;10.70;99.90
2012;DHT22;1009;51.436;6.972;2023-01-06T03:42:27;10.70;99.90
2012;DHT22;1009;51.436;6.972;2023-01-06T03:45:30;10.70;99.90
2012;DHT22;1009;51.436;6.972;2023-01-06T03:48:04;10.60;99.90
2012;DHT22;1009;51.436;6.972;2023-01-06T03:50:37;10.70;99.90
2012;DHT22;1009;51.436;6.972;2023-01-06T03:53:18;10.70;99.90
2012;DHT22;1009;51.436;6.972;2023-01-06T03:55:52;10.70;99.90
2012;DHT22;1009;51.436;6.972;2023-01-06T03:58:24;10.70;99.90
2012;DHT22;1009;51.436;6.972;2023-01-06T04:00:51;10.70;99.90
2012;DHT22;1009;51.436;6.972;2023-01-06T04:03:22;10.70;99.90
2012;DHT22;1009;51.436;6.972;2023-01-06T04:05:51;10.70;99.90
2012;DHT22;1009;51.436;6.972;2023-01-06T04:08:18;10.70;99.90
2012;DHT22;1009;51.436;6.972;2023-01-06T04:10:48;10.70;99.90
2012;DHT22;1009;51.436;6.972;2023-01-06T04:13:18;10.70;99.90
2012;DHT22;1009;51.436;6.972;2023-01-06T04:15:44;10.70;99.90
2012;DHT22;1009;51.436;6.972;2023-01-06T04:18:10;10.80;99.90
2012;DHT22;1009;51.436;6.972;2023-01-06T04:20:37;10.80;99.90
2012;DHT22;1009;51.436;6.972;2023-01-06T04:23:05;10.80;99.90
2012;DHT22;1009;51.436;6.972;2023-01-06T04:25:32;10.80;99.90
2012;DHT22;1009;51.436;6.972;2023-01-06T04:27:58;10.80;99.90
2012;DHT22;1009;51.436;6.972;2023-01-06T04:30:25;10.80;99.90
2012;DHT22;1009;51.436;6.972;2023-01-06T04:32:52;10.80;99.90
2012;DHT22;1009;51.436;6.972;2023-01-06T04:35:18;10.80;99.90
2012;DHT22;1009;51.436;6.972;2023-01-06T04:37:45;10.80;99.90
2012;DHT22;1009;51.436;6.972;2023-01-06T04:40:13;10.90;99.90
2012;DHT22;1009;51.436;6.972;2023-01-06T04:42:40;10.80;99.90
2012;DHT22;1009;51.436;6.972;2023-01-06T04:45:24;10.80;99.90
2012;DHT22;1009;51.436;6.972;2023-01-06T04:47:51;10.80;99.90
2012;DHT22;1009;51.436;6.972;2023-01-06T04:50:17;10.80;99.90
2012;DHT22;1009;51.436;6.972;2023-01-06T04:52:44;10.80;99.90
2012;DHT22;1009;51.436;6.972;2023-01-06T04:55:12;10.80;99.90
2012;DHT22;1009;51.436;6.972;2023-01-06T04:57:39;10.80;99.90
2012;DHT22;1009;51.436;6.972;2023-01-06T05:00:07;10.80;99.90
2012;DHT22;1009;51.436;6.972;2023-01-06T05:02:34;10.80;99.90
2012;DHT22;1009;51.436;6.972;2023-01-06T05:05:01;10.80;99.90
2012;DHT22;1009;51.436;6.972;2023-01-06T05:07:28;10.80;99.90
2012;DHT22;1009;51.436;6.972;2023-01-06T05:09:54;10.80;99.90
2012;DHT22;1009;51.436;6.972;2023-01-06T05:12:22;10.80;99.90
2012;DHT22;1009;51.436;6.972;2023-01-06T05:14:49;10.80;99.90
2012;DHT22;1009;51.436;6.972;2023-01-06T05:17:16;10.80;99.90
2012;DHT22;1009;51.436;6.972;2023-01-06T05:19:43;10.80;99.90
2012;DHT22;1009;51.436;6.972;2023-01-06T05:22:10;10.80;99.90
2012;DHT22;1009;51.436;6.972;2023-01-06T05:24:37;10.80;99.90
2012;DHT22;1009;51.436;6.972;2023-01-06T05:27:06;10.80;99.90
2012;DHT22;1009;51.436;6.972;2023-01-06T05:29:35;10.80;99.90
2012;DHT22;1009;51.436;6.972;2023-01-06T05:32:02;10.80;99.90
2012;DHT22;1009;51.436;6.972;2023-01-06T05:34:29;10.80;99.90
2012;DHT22;1009;51.436;6.972;2023-01-06T05:36:56;10.80;99.90
2012;DHT22;1009;51.436;6.972;2023-01-06T05:39:31;10.80;99.90
2012;DHT22;1009;51.436;6.972;2023-01-06T05:41:58;10.80;99.90
2012;DHT22;1009;51.436;6.972;2023-01-06T05:44:25;10.80;99.90
2012;DHT22;1009;51.436;6.972;2023-01-06T05:46:53;10.80;99.90
2012;DHT22;1009;51.436;6.972;2023-01-06T05:49:20;10.80;99.90
2012;DHT22;1009;51.436;6.972;2023-01-06T05:51:47;10.80;99.90
2012;DHT22;1009;51.436;6.972;2023-01-06T05:54:13;10.80;99.90
2012;DHT22;1009;51.436;6.972;2023-01-06T05:56:40;10.80;99.90
2012;DHT22;1009;51.436;6.972;2023-01-06T05:59:13;10.80;99.90
2012;DHT22;1009;51.436;6.972;2023-01-06T06:01:39;10.80;99.90
2012;DHT22;1009;51.436;6.972;2023-01-06T06:04:09;10.80;99.90
2012;DHT22;1009;51.436;6.972;2023-01-06T06:06:36;10.80;99.90
2012;DHT22;1009;51.436;6.972;2023-01-06T06:09:04;10.80;99.90
2012;DHT22;1009;51.436;6.972;2023-01-06T06:11:31;10.80;99.90
2012;DHT22;1009;51.436;6.972;2023-01-06T06:13:58;10.80;99.90
2012;DHT22;1009;51.436;6.972;2023-01-06T06:16:26;10.80;99.90
2012;DHT22;1009;51.436;6.972;2023-01-06T06:18:55;10.80;99.90
2012;DHT22;1009;51.436;6.972;2023-01-06T06:21:24;10.70;99.90
2012;DHT22;1009;51.436;6.972;2023-01-06T06:23:53;10.70;99.90
2012;DHT22;1009;51.436;6.972;2023-01-06T06:26:20;10.70;99.90
2012;DHT22;1009;51.436;6.972;2023-01-06T06:28:47;10.70;99.90
2012;DHT22;1009;51.436;6.972;2023-01-06T06:31:16;10.70;99.90
2012;DHT22;1009;51.436;6.972;2023-01-06T06:33:43;10.70;99.90
2012;DHT22;1009;51.436;6.972;2023-01-06T06:36:16;10.70;99.90
2012;DHT22;1009;51.436;6.972;2023-01-06T06:38:45;10.70;99.90
2012;DHT22;1009;51.436;6.972;2023-01-06T06:41:13;10.60;99.90
2012;DHT22;1009;51.436;6.972;2023-01-06T06:43:40;10.70;99.90
2012;DHT22;1009;51.436;6.972;2023-01-06T06:46:07;10.70;99.90
2012;DHT22;1009;51.436;6.972;2023-01-06T06:48:34;10.60;99.90
2012;DHT22;1009;51.436;6.972;2023-01-06T06:51:02;10.60;99.90
2012;DHT22;1009;51.436;6.972;2023-01-06T06:53:29;10.70;99.90
2012;DHT22;1009;51.436;6.972;2023-01-06T06:55:58;10.70;99.90
2012;DHT22;1009;51.436;6.972;2023-01-06T06:58:25;10.60;99.90
2012;DHT22;1009;51.436;6.972;2023-01-06T07:00:52;10.70;99.90
2012;DHT22;1009;51.436;6.972;2023-01-06T07:03:19;10.60;99.90
2012;DHT22;1009;51.436;6.972;2023-01-06T07:05:48;10.70;99.90
2012;DHT22;1009;51.436;6.972;2023-01-06T07:08:15;10.70;99.90
2012;DHT22;1009;51.436;6.972;2023-01-06T07:10:42;10.70;99.90
2012;DHT22;1009;51.436;6.972;2023-01-06T07:13:10;10.60;99.90
2012;DHT22;1009;51.436;6.972;2023-01-06T07:15:37;10.60;99.90
2012;DHT22;1009;51.436;6.972;2023-01-06T07:18:05;10.60;99.90
2012;DHT22;1009;51.436;6.972;2023-01-06T07:20:33;10.60;99.90
2012;DHT22;1009;51.436;6.972;2023-01-06T07:23:01;10.60;99.90
2012;DHT22;1009;51.436;6.972;2023-01-06T07:25:28;10.60;99.90
2012;DHT22;1009;51.436;6.972;2023-01-06T07:27:59;10.60;99.90
2012;DHT22;1009;51.436;6.972;2023-01-06T07:30:31;10.70;99.90
2012;DHT22;1009;51.436;6.972;2023-01-06T07:32:58;10.70;99.90
2012;DHT22;1009;51.436;6.972;2023-01-06T07:35:26;10.70;99.90
2012;DHT22;1009;51.436;6.972;2023-01-06T07:37:52;10.70;99.90
2012;DHT22;1009;51.436;6.972;2023-01-06T07:40:25;10.80;99.90
2012;DHT22;1009;51.436;6.972;2023-01-06T07:42:55;10.80;99.90
2012;DHT22;1009;51.436;6.972;2023-01-06T07:45:21;10.80;99.90
2012;DHT22;1009;51.436;6.972;2023-01-06T07:47:49;10.80;99.90
2012;DHT22;1009;51.436;6.972;2023-01-06T07:50:16;10.80;99.90
2012;DHT22;1009;51.436;6.972;2023-01-06T07:52:43;10.80;99.90
2012;DHT22;1009;51.436;6.972;2023-01-06T07:55:10;10.80;99.90
2012;DHT22;1009;51.436;6.972;2023-01-06T07:57:36;10.80;99.90
2012;DHT22;1009;51.436;6.972;2023-01-06T08:00:04;10.80;99.90
2012;DHT22;1009;51.436;6.972;2023-01-06T08:02:45;10.90;99.90
2012;DHT22;1009;51.436;6.972;2023-01-06T08:05:13;10.80;99.90
2012;DHT22;1009;51.436;6.972;2023-01-06T08:07:40;10.90;99.90
2012;DHT22;1009;51.436;6.972;2023-01-06T08:10:10;10.90;99.90
2012;DHT22;1009;51.436;6.972;2023-01-06T08:12:37;10.90;99.90
2012;DHT22;1009;51.436;6.972;2023-01-06T08:15:04;10.90;99.90
2012;DHT22;1009;51.436;6.972;2023-01-06T08:17:31;10.90;99.90
2012;DHT22;1009;51.436;6.972;2023-01-06T08:19:58;10.90;99.90
2012;DHT22;1009;51.436;6.972;2023-01-06T08:22:26;10.90;99.90
2012;DHT22;1009;51.436;6.972;2023-01-06T08:24:53;10.90;99.90
2012;DHT22;1009;51.436;6.972;2023-01-06T08:27:19;10.90;99.90
2012;DHT22;1009;51.436;6.972;2023-01-06T08:29:46;10.90;99.90
2012;DHT22;1009;51.436;6.972;2023-01-06T08:32:14;10.80;99.90
2012;DHT22;1009;51.436;6.972;2023-01-06T08:34:41;10.90;99.90
2012;DHT22;1009;51.436;6.972;2023-01-06T08:37:07;10.80;99.90
2012;DHT22;1009;51.436;6.972;2023-01-06T08:39:35;10.80;99.90
2012;DHT22;1009;51.436;6.972;2023-01-06T08:42:02;10.80;99.90
2012;DHT22;1009;51.436;6.972;2023-01-06T08:44:29;10.80;99.90
2012;DHT22;1009;51.436;6.972;2023-01-06T08:46:56;10.80;99.90
2012;DHT22;1009;51.436;6.972;2023-01-06T08:49:23;10.80;99.90
2012;DHT22;1009;51.436;6.972;2023-01-06T08:51:49;10.80;99.90
2012;DHT22;1009;51.436;6.972;2023-01-06T08:54:16;10.80;99.90
2012;DHT22;1009;51.436;6.972;2023-01-06T08:56:44;10.80;99.90
2012;DHT22;1009;51.436;6.972;2023-01-06T08:59:13;10.80;99.90
2012;DHT22;1009;51.436;6.972;2023-01-06T09:01:40;10.70;99.90
2012;DHT22;1009;51.436;6.972;2023-01-06T09:04:07;10.70;99.90
2012;DHT22;1009;51.436;6.972;2023-01-06T09:06:44;10.60;99.90
2012;DHT22;1009;51.436;6.972;2023-01-06T09:09:12;10.70;99.90
2012;DHT22;1009;51.436;6.972;2023-01-06T09:11:40;10.70;99.90
2012;DHT22;1009;51.436;6.972;2023-01-06T09:14:09;10.70;99.90
2012;DHT22;1009;51.436;6.972;2023-01-06T09:16:38;10.70;99.90
2012;DHT22;1009;51.436;6.972;2023-01-06T09:19:05;10.60;99.90
2012;DHT22;1009;51.436;6.972;2023-01-06T09:21:35;10.60;99.90
2012;DHT22;1009;51.436;6.972;2023-01-06T09:24:02;10.70;99.90
2012;DHT22;1009;51.436;6.972;2023-01-06T09:26:29;10.80;99.90
2012;DHT22;1009;51.436;6.972;2023-01-06T09:28:55;10.80;99.90
2012;DHT22;1009;51.436;6.972;2023-01-06T09:31:24;10.80;99.90
2012;DHT22;1009;51.436;6.972;2023-01-06T09:33:51;10.70;99.90
2012;DHT22;1009;51.436;6.972;2023-01-06T09:36:17;10.70;99.90
2012;DHT22;1009;51.436;6.972;2023-01-06T09:38:44;10.60;99.90
2012;DHT22;1009;51.436;6.972;2023-01-06T09:41:27;10.50;99.90
2012;DHT22;1009;51.436;6.972;2023-01-06T09:44:03;10.50;99.90
2012;DHT22;1009;51.436;6.972;2023-01-06T09:46:35;10.50;99.90
2012;DHT22;1009;51.436;6.972;2023-01-06T09:49:12;10.60;99.90
2012;DHT22;1009;51.436;6.972;2023-01-06T09:51:41;10.50;99.90
2012;DHT22;1009;51.436;6.972;2023-01-06T09:54:14;10.50;99.90
2012;DHT22;1009;51.436;6.972;2023-01-06T09:56:50;10.50;99.90
2012;DHT22;1009;51.436;6.972;2023-01-06T09:59:21;10.50;99.90
2012;DHT22;1009;51.436;6.972;2023-01-06T10:01:50;10.50;99.90
2012;DHT22;1009;51.436;6.972;2023-01-06T10:04:24;10.50;99.90
2012;DHT22;1009;51.436;6.972;2023-01-06T10:07:00;10.50;99.90
2012;DHT22;1009;51.436;6.972;2023-01-06T10:09:39;10.50;99.90
2012;DHT22;1009;51.436;6.972;2023-01-06T10:12:18;10.50;99.90
2012;DHT22;1009;51.436;6.972;2023-01-06T10:14:57;10.50;99.90
2012;DHT22;1009;51.436;6.972;2023-01-06T10:17:49;10.50;99.90
2012;DHT22;1009;51.436;6.972;2023-01-06T10:20:47;10.40;99.90
2012;DHT22;1009;51.436;6.972;2023-01-06T10:23:30;10.50;99.90
2012;DHT22;1009;51.436;6.972;2023-01-06T10:26:04;10.50;99.90
2012;DHT22;1009;51.436;6.972;2023-01-06T10:28:35;10.40;99.90
2012;DHT22;1009;51.436;6.972;2023-01-06T10:31:04;10.40;99.90
2012;DHT22;1009;51.436;6.972;2023-01-06T10:33:35;10.40;99.90
2012;DHT22;1009;51.436;6.972;2023-01-06T10:36:10;10.40;99.90
2012;DHT22;1009;51.436;6.972;2023-01-06T10:38:40;10.40;99.90
2012;DHT22;1009;51.436;6.972;2023-01-06T10:41:14;10.50;99.90
2012;DHT22;1009;51.436;6.972;2023-01-06T10:43:43;10.60;99.90
2012;DHT22;1009;51.436;6.972;2023-01-06T10:46:10;10.60;99.90
2012;DHT22;1009;51.436;6.972;2023-01-06T10:48:38;10.60;99.90
2012;DHT22;1009;51.436;6.972;2023-01-06T10:51:26;10.60;99.90
2012;DHT22;1009;51.436;6.972;2023-01-06T10:53:56;10.60;99.90
2012;DHT22;1009;51.436;6.972;2023-01-06T10:56:24;10.60;99.90
2012;DHT22;1009;51.436;6.972;2023-01-06T10:58:55;10.60;99.90
2012;DHT22;1009;51.436;6.972;2023-01-06T11:01:23;10.70;99.90
2012;DHT22;1009;51.436;6.972;2023-01-06T11:04:03;10.80;99.90
2012;DHT22;1009;51.436;6.972;2023-01-06T11:06:33;10.80;99.90
2012;DHT22;1009;51.436;6.972;2023-01-06T11:09:06;10.90;99.90
2012;DHT22;1009;51.436;6.972;2023-01-06T11:11:44;10.80;99.90
2012;DHT22;1009;51.436;6.972;2023-01-06T11:14:16;10.90;99.90
2012;DHT22;1009;51.436;6.972;2023-01-06T11:16:52;10.90;99.90
2012;DHT22;1009;51.436;6.972;2023-01-06T11:19:23;11.00;99.90
2012;DHT22;1009;51.436;6.972;2023-01-06T11:21:56;10.90;99.90
2012;DHT22;1009;51.436;6.972;2023-01-06T11:24:24;10.90;99.90
2012;DHT22;1009;51.436;6.972;2023-01-06T11:26:52;11.00;99.90
2012;DHT22;1009;51.436;6.972;2023-01-06T11:29:25;11.00;99.90
2012;DHT22;1009;51.436;6.972;2023-01-06T11:31:52;11.10;99.90
2012;DHT22;1009;51.436;6.972;2023-01-06T11:34:21;11.10;99.90
2012;DHT22;1009;51.436;6.972;2023-01-06T11:36:50;11.10;99.90
2012;DHT22;1009;51.436;6.972;2023-01-06T11:39:24;11.10;99.90
2012;DHT22;1009;51.436;6.972;2023-01-06T11:41:53;11.10;99.90
2012;DHT22;1009;51.436;6.972;2023-01-06T11:44:28;11.20;99.90
2012;DHT22;1009;51.436;6.972;2023-01-06T11:46:56;11.20;99.90
2012;DHT22;1009;51.436;6.972;2023-01-06T11:49:28;11.20;99.90
2012;DHT22;1009;51.436;6.972;2023-01-06T11:52:01;11.20;99.90
2012;DHT22;1009;51.436;6.972;2023-01-06T11:54:32;11.20;99.90
2012;DHT22;1009;51.436;6.972;2023-01-06T11:57:01;11.20;99.90
2012;DHT22;1009;51.436;6.972;2023-01-06T11:59:41;11.20;99.90
2012;DHT22;1009;51.436;6.972;2023-01-06T12:02:13;11.30;99.90
2012;DHT22;1009;51.436;6.972;2023-01-06T12:04:47;11.40;99.90
2012;DHT22;1009;51.436;6.972;2023-01-06T12:07:22;11.40;99.90
2012;DHT22;1009;51.436;6.972;2023-01-06T12:09:50;11.40;99.90
2012;DHT22;1009;51.436;6.972;2023-01-06T12:12:20;11.50;99.90
2012;DHT22;1009;51.436;6.972;2023-01-06T12:14:48;11.50;99.90
2012;DHT22;1009;51.436;6.972;2023-01-06T12:17:22;11.60;99.90
2012;DHT22;1009;51.436;6.972;2023-01-06T12:19:57;11.80;99.90
2012;DHT22;1009;51.436;6.972;2023-01-06T12:22:35;11.80;99.90
2012;DHT22;1009;51.436;6.972;2023-01-06T12:25:05;11.90;99.90
2012;DHT22;1009;51.436;6.972;2023-01-06T12:27:38;11.90;99.90
2012;DHT22;1009;51.436;6.972;2023-01-06T12:30:13;11.90;99.90
2012;DHT22;1009;51.436;6.972;2023-01-06T12:32:44;11.90;99.90
2012;DHT22;1009;51.436;6.972;2023-01-06T12:35:17;11.90;99.90
2012;DHT22;1009;51.436;6.972;2023-01-06T12:37:49;11.90;99.90
2012;DHT22;1009;51.436;6.972;2023-01-06T12:40:24;11.90;99.90
2012;DHT22;1009;51.436;6.972;2023-01-06T12:42:58;11.90;99.90
2012;DHT22;1009;51.436;6.972;2023-01-06T12:45:32;11.90;99.90
2012;DHT22;1009;51.436;6.972;2023-01-06T12:48:04;11.90;99.90
2012;DHT22;1009;51.436;6.972;2023-01-06T12:50:37;11.90;99.90
2012;DHT22;1009;51.436;6.972;2023-01-06T12:53:11;11.90;99.90
2012;DHT22;1009;51.436;6.972;2023-01-06T12:55:43;12.00;99.90
2012;DHT22;1009;51.436;6.972;2023-01-06T12:58:18;12.00;99.90
2012;DHT22;1009;51.436;6.972;2023-01-06T13:00:51;12.00;99.90
2012;DHT22;1009;51.436;6.972;2023-01-06T13:06:46;12.20;99.90
2012;DHT22;1009;51.436;6.972;2023-01-06T13:09:29;12.10;99.90
2012;DHT22;1009;51.436;6.972;2023-01-06T13:12:18;12.00;99.90
2012;DHT22;1009;51.436;6.972;2023-01-06T13:14:53;11.90;99.90
2012;DHT22;1009;51.436;6.972;2023-01-06T13:17:27;12.00;99.90
2012;DHT22;1009;51.436;6.972;2023-01-06T13:19:59;12.00;99.90
2012;DHT22;1009;51.436;6.972;2023-01-06T13:22:38;12.10;99.90
2012;DHT22;1009;51.436;6.972;2023-01-06T13:28:16;13.30;99.90
2012;DHT22;1009;51.436;6.972;2023-01-06T13:31:05;13.40;99.90
2012;DHT22;1009;51.436;6.972;2023-01-06T13:34:05;13.00;99.90
2012;DHT22;1009;51.436;6.972;2023-01-06T13:36:49;12.60;99.90
2012;DHT22;1009;51.436;6.972;2023-01-06T13:39:22;12.50;99.90
2012;DHT22;1009;51.436;6.972;2023-01-06T13:41:53;12.40;99.90
2012;DHT22;1009;51.436;6.972;2023-01-06T13:44:23;12.20;99.90
2012;DHT22;1009;51.436;6.972;2023-01-06T13:46:54;12.10;99.90
2012;DHT22;1009;51.436;6.972;2023-01-06T13:49:26;12.00;99.90
2012;DHT22;1009;51.436;6.972;2023-01-06T13:51:55;12.00;99.90
2012;DHT22;1009;51.436;6.972;2023-01-06T13:55:02;11.90;99.90
2012;DHT22;1009;51.436;6.972;2023-01-06T13:57:33;11.80;99.90
2012;DHT22;1009;51.436;6.972;2023-01-06T14:00:21;11.80;99.90
2012;DHT22;1009;51.436;6.972;2023-01-06T14:05:52;11.70;99.90
2012;DHT22;1009;51.436;6.972;2023-01-06T14:08:20;11.70;99.90
2012;DHT22;1009;51.436;6.972;2023-01-06T14:10:56;11.60;99.90
2012;DHT22;1009;51.436;6.972;2023-01-06T14:13:26;11.60;99.90
2012;DHT22;1009;51.436;6.972;2023-01-06T14:15:56;11.60;99.90
2012;DHT22;1009;51.436;6.972;2023-01-06T14:18:39;11.50;99.90
2012;DHT22;1009;51.436;6.972;2023-01-06T14:21:18;11.50;99.90
2012;DHT22;1009;51.436;6.972;2023-01-06T14:23:53;11.50;99.90
2012;DHT22;1009;51.436;6.972;2023-01-06T14:26:50;11.50;99.90
2012;DHT22;1009;51.436;6.972;2023-01-06T14:29:46;11.40;99.90
2012;DHT22;1009;51.436;6.972;2023-01-06T14:32:58;11.40;99.90
2012;DHT22;1009;51.436;6.972;2023-01-06T14:35:28;11.40;99.90
2012;DHT22;1009;51.436;6.972;2023-01-06T14:37:59;11.20;99.90
2012;DHT22;1009;51.436;6.972;2023-01-06T14:40:28;11.30;99.90
2012;DHT22;1009;51.436;6.972;2023-01-06T14:42:59;11.30;99.90
2012;DHT22;1009;51.436;6.972;2023-01-06T14:45:28;11.20;99.90
2012;DHT22;1009;51.436;6.972;2023-01-06T14:48:02;11.20;99.90
2012;DHT22;1009;51.436;6.972;2023-01-06T14:50:34;11.20;99.90
2012;DHT22;1009;51.436;6.972;2023-01-06T14:53:04;11.20;99.90
2012;DHT22;1009;51.436;6.972;2023-01-06T14:55:34;11.20;99.90
2012;DHT22;1009;51.436;6.972;2023-01-06T14:58:04;11.20;99.90
2012;DHT22;1009;51.436;6.972;2023-01-06T15:00:31;11.10;99.90
2012;DHT22;1009;51.436;6.972;2023-01-06T15:02:59;11.20;99.90
2012;DHT22;1009;51.436;6.972;2023-01-06T15:05:28;11.30;99.90
2012;DHT22;1009;51.436;6.972;2023-01-06T15:08:00;11.30;99.90
2012;DHT22;1009;51.436;6.972;2023-01-06T15:10:29;11.30;99.90
2012;DHT22;1009;51.436;6.972;2023-01-06T15:12:57;11.20;99.90
2012;DHT22;1009;51.436;6.972;2023-01-06T15:15:27;11.20;99.90
2012;DHT22;1009;51.436;6.972;2023-01-06T15:17:55;11.20;99.90
2012;DHT22;1009;51.436;6.972;2023-01-06T15:20:31;11.20;99.90
2012;DHT22;1009;51.436;6.972;2023-01-06T15:22:58;11.20;99.90
2012;DHT22;1009;51.436;6.972;2023-01-06T15:25:26;11.20;99.90
2012;DHT22;1009;51.436;6.972;2023-01-06T15:27:54;11.20;99.90
2012;DHT22;1009;51.436;6.972;2023-01-06T15:30:23;11.20;99.90
2012;DHT22;1009;51.436;6.972;2023-01-06T15:32:52;11.10;99.90
2012;DHT22;1009;51.436;6.972;2023-01-06T15:35:21;11.20;99.90
2012;DHT22;1009;51.436;6.972;2023-01-06T15:37:54;11.20;99.90
2012;DHT22;1009;51.436;6.972;2023-01-06T15:40:24;11.20;99.90
2012;DHT22;1009;51.436;6.972;2023-01-06T15:42:51;11.20;99.90
2012;DHT22;1009;51.436;6.972;2023-01-06T15:45:24;11.20;99.90
2012;DHT22;1009;51.436;6.972;2023-01-06T15:47:54;11.20;99.90
2012;DHT22;1009;51.436;6.972;2023-01-06T15:50:26;11.10;99.90
2012;DHT22;1009;51.436;6.972;2023-01-06T15:53:00;11.10;99.90
2012;DHT22;1009;51.436;6.972;2023-01-06T15:55:30;11.10;99.90
2012;DHT22;1009;51.436;6.972;2023-01-06T15:58:05;11.10;99.90
2012;DHT22;1009;51.436;6.972;2023-01-06T16:00:34;11.20;99.90
2012;DHT22;1009;51.436;6.972;2023-01-06T16:03:06;11.20;99.90
2012;DHT22;1009;51.436;6.972;2023-01-06T16:05:38;11.10;99.90
2012;DHT22;1009;51.436;6.972;2023-01-06T16:08:15;11.10;99.90
2012;DHT22;1009;51.436;6.972;2023-01-06T16:10:42;11.10;99.90
2012;DHT22;1009;51.436;6.972;2023-01-06T16:13:24;11.00;99.90
2012;DHT22;1009;51.436;6.972;2023-01-06T16:15:55;11.00;99.90
2012;DHT22;1009;51.436;6.972;2023-01-06T16:18:27;11.00;99.90
2012;DHT22;1009;51.436;6.972;2023-01-06T16:20:55;11.00;99.90
2012;DHT22;1009;51.436;6.972;2023-01-06T16:23:30;11.00;99.90
2012;DHT22;1009;51.436;6.972;2023-01-06T16:26:09;11.00;99.90
2012;DHT22;1009;51.436;6.972;2023-01-06T16:28:45;11.00;99.90
2012;DHT22;1009;51.436;6.972;2023-01-06T16:31:13;11.00;99.90
2012;DHT22;1009;51.436;6.972;2023-01-06T16:33:43;11.00;99.90
2012;DHT22;1009;51.436;6.972;2023-01-06T16:36:12;10.90;99.90
2012;DHT22;1009;51.436;6.972;2023-01-06T16:38:38;10.90;99.90
2012;DHT22;1009;51.436;6.972;2023-01-06T16:41:06;10.90;99.90